sensor_id;sensor_type;location;lat;lon;timestamp;P1;durP1;ratioP1;P2;durP2;ratioP2
9481;SDS011;4779;48.062;11.672;2023-05-21T00:00:37;9.30;;;8.40;;
9481;SDS011;4779;48.062;11.672;2023-05-21T00:03:04;8.63;;;7.85;;
9481;SDS011;4779;48.062;11.672;2023-05-21T00:05:37;8.52;;;7.72;;
9481;SDS011;4779;48.062;11.672;2023-05-21T00:08:04;8.23;;;7.43;;
9481;SDS011;4779;48.062;11.672;2023-05-21T00:10:31;8.18;;;7.22;;
9481;SDS011;4779;48.062;11.672;2023-05-21T00:12:58;8.38;;;7.57;;
9481;SDS011;4779;48.062;11.672;2023-05-21T00:15:26;8.15;;;7.35;;
9481;SDS011;4779;48.062;11.672;2023-05-21T00:17:53;8.48;;;7.60;;
9481;SDS011;4779;48.062;11.672;2023-05-21T00:20:20;7.88;;;6.82;;
9481;SDS011;4779;48.062;11.672;2023-05-21T00:22:47;8.25;;;7.53;;
9481;SDS011;4779;48.062;11.672;2023-05-21T00:25:14;8.02;;;7.22;;
9481;SDS011;4779;48.062;11.672;2023-05-21T00:27:41;8.23;;;7.50;;
9481;SDS011;4779;48.062;11.672;2023-05-21T00:30:08;7.68;;;7.00;;
9481;SDS011;4779;48.062;11.672;2023-05-21T00:32:36;8.30;;;7.43;;
9481;SDS011;4779;48.062;11.672;2023-05-21T00:35:03;7.53;;;6.82;;
9481;SDS011;4779;48.062;11.672;2023-05-21T00:37:31;8.25;;;7.30;;
9481;SDS011;4779;48.062;11.672;2023-05-21T00:39:58;8.10;;;7.30;;
9481;SDS011;4779;48.062;11.672;2023-05-21T00:42:25;8.35;;;7.55;;
9481;SDS011;4779;48.062;11.672;2023-05-21T00:44:54;9.77;;;7.18;;
9481;SDS011;4779;48.062;11.672;2023-05-21T00:47:21;7.68;;;6.97;;
9481;SDS011;4779;48.062;11.672;2023-05-21T00:49:52;7.63;;;6.95;;
9481;SDS011;4779;48.062;11.672;2023-05-21T00:52:20;7.93;;;7.22;;
9481;SDS011;4779;48.062;11.672;2023-05-21T00:54:48;8.30;;;7.50;;
9481;SDS011;4779;48.062;11.672;2023-05-21T00:57:16;8.02;;;7.03;;
9481;SDS011;4779;48.062;11.672;2023-05-21T00:59:45;8.02;;;7.32;;
9481;SDS011;4779;48.062;11.672;2023-05-21T01:02:13;7.78;;;7.00;;
9481;SDS011;4779;48.062;11.672;2023-05-21T01:04:42;7.78;;;7.07;;
9481;SDS011;4779;48.062;11.672;2023-05-21T01:07:10;7.60;;;6.82;;
9481;SDS011;4779;48.062;11.672;2023-05-21T01:09:38;7.68;;;6.97;;
9481;SDS011;4779;48.062;11.672;2023-05-21T01:12:05;9.82;;;6.97;;
9481;SDS011;4779;48.062;11.672;2023-05-21T01:14:33;7.85;;;7.15;;
9481;SDS011;4779;48.062;11.672;2023-05-21T01:17:02;7.70;;;7.00;;
9481;SDS011;4779;48.062;11.672;2023-05-21T01:19:34;8.02;;;7.22;;
9481;SDS011;4779;48.062;11.672;2023-05-21T01:22:03;7.50;;;6.80;;
9481;SDS011;4779;48.062;11.672;2023-05-21T01:24:32;8.25;;;7.35;;
9481;SDS011;4779;48.062;11.672;2023-05-21T01:27:00;7.60;;;6.90;;
9481;SDS011;4779;48.062;11.672;2023-05-21T01:29:29;7.75;;;6.85;;
9481;SDS011;4779;48.062;11.672;2023-05-21T01:31:58;8.27;;;7.47;;
9481;SDS011;4779;48.062;11.672;2023-05-21T01:34:31;7.57;;;6.88;;
9481;SDS011;4779;48.062;11.672;2023-05-21T01:37:07;8.50;;;7.68;;
9481;SDS011;4779;48.062;11.672;2023-05-21T01:39:41;6.88;;;6.18;;
9481;SDS011;4779;48.062;11.672;2023-05-21T01:42:12;7.50;;;6.80;;
9481;SDS011;4779;48.062;11.672;2023-05-21T01:44:41;7.55;;;6.63;;
9481;SDS011;4779;48.062;11.672;2023-05-21T01:47:10;6.80;;;6.20;;
9481;SDS011;4779;48.062;11.672;2023-05-21T01:49:37;7.43;;;6.78;;
9481;SDS011;4779;48.062;11.672;2023-05-21T01:52:05;7.43;;;6.72;;
9481;SDS011;4779;48.062;11.672;2023-05-21T01:54:32;7.15;;;6.55;;
9481;SDS011;4779;48.062;11.672;2023-05-21T01:57:00;7.78;;;6.63;;
9481;SDS011;4779;48.062;11.672;2023-05-21T01:59:27;7.47;;;6.70;;
9481;SDS011;4779;48.062;11.672;2023-05-21T02:01:55;7.05;;;6.35;;
9481;SDS011;4779;48.062;11.672;2023-05-21T02:04:21;6.80;;;6.10;;
9481;SDS011;4779;48.062;11.672;2023-05-21T02:06:48;7.65;;;6.82;;
9481;SDS011;4779;48.062;11.672;2023-05-21T02:09:15;7.38;;;6.18;;
9481;SDS011;4779;48.062;11.672;2023-05-21T02:11:42;6.82;;;6.13;;
9481;SDS011;4779;48.062;11.672;2023-05-21T02:14:11;7.47;;;6.68;;
9481;SDS011;4779;48.062;11.672;2023-05-21T02:16:38;7.70;;;6.95;;
9481;SDS011;4779;48.062;11.672;2023-05-21T02:19:06;6.93;;;6.22;;
9481;SDS011;4779;48.062;11.672;2023-05-21T02:21:34;6.78;;;6.18;;
9481;SDS011;4779;48.062;11.672;2023-05-21T02:24:01;6.65;;;6.07;;
9481;SDS011;4779;48.062;11.672;2023-05-21T02:26:28;6.75;;;6.15;;
9481;SDS011;4779;48.062;11.672;2023-05-21T02:28:55;6.72;;;6.13;;
9481;SDS011;4779;48.062;11.672;2023-05-21T02:31:23;7.05;;;6.35;;
9481;SDS011;4779;48.062;11.672;2023-05-21T02:33:50;8.35;;;6.60;;
9481;SDS011;4779;48.062;11.672;2023-05-21T02:36:17;6.63;;;6.03;;
9481;SDS011;4779;48.062;11.672;2023-05-21T02:38:44;6.30;;;5.70;;
9481;SDS011;4779;48.062;11.672;2023-05-21T02:41:11;7.20;;;6.57;;
9481;SDS011;4779;48.062;11.672;2023-05-21T02:43:38;6.97;;;6.13;;
9481;SDS011;4779;48.062;11.672;2023-05-21T02:46:05;6.60;;;6.00;;
9481;SDS011;4779;48.062;11.672;2023-05-21T02:48:33;6.90;;;6.20;;
9481;SDS011;4779;48.062;11.672;2023-05-21T02:51:00;6.68;;;5.97;;
9481;SDS011;4779;48.062;11.672;2023-05-21T02:53:27;7.03;;;6.32;;
9481;SDS011;4779;48.062;11.672;2023-05-21T02:55:54;7.40;;;6.20;;
9481;SDS011;4779;48.062;11.672;2023-05-21T02:58:21;7.10;;;6.32;;
9481;SDS011;4779;48.062;11.672;2023-05-21T03:00:49;7.47;;;6.68;;
9481;SDS011;4779;48.062;11.672;2023-05-21T03:03:16;7.65;;;6.50;;
9481;SDS011;4779;48.062;11.672;2023-05-21T03:05:44;7.25;;;6.55;;
9481;SDS011;4779;48.062;11.672;2023-05-21T03:08:12;7.28;;;6.03;;
9481;SDS011;4779;48.062;11.672;2023-05-21T03:10:39;7.15;;;6.45;;
9481;SDS011;4779;48.062;11.672;2023-05-21T03:13:06;7.10;;;6.40;;
9481;SDS011;4779;48.062;11.672;2023-05-21T03:15:33;7.60;;;6.90;;
9481;SDS011;4779;48.062;11.672;2023-05-21T03:18:00;6.72;;;6.05;;
9481;SDS011;4779;48.062;11.672;2023-05-21T03:20:27;6.78;;;6.07;;
9481;SDS011;4779;48.062;11.672;2023-05-21T03:22:55;7.88;;;6.28;;
9481;SDS011;4779;48.062;11.672;2023-05-21T03:25:22;7.20;;;6.50;;
9481;SDS011;4779;48.062;11.672;2023-05-21T03:27:49;7.78;;;7.03;;
9481;SDS011;4779;48.062;11.672;2023-05-21T03:30:17;6.60;;;6.00;;
9481;SDS011;4779;48.062;11.672;2023-05-21T03:32:44;6.90;;;6.30;;
9481;SDS011;4779;48.062;11.672;2023-05-21T03:35:11;8.85;;;6.53;;
9481;SDS011;4779;48.062;11.672;2023-05-21T03:37:38;7.40;;;6.70;;
9481;SDS011;4779;48.062;11.672;2023-05-21T03:40:07;6.95;;;6.35;;
9481;SDS011;4779;48.062;11.672;2023-05-21T03:42:35;6.80;;;6.20;;
9481;SDS011;4779;48.062;11.672;2023-05-21T03:45:01;7.15;;;6.47;;
9481;SDS011;4779;48.062;11.672;2023-05-21T03:47:28;8.65;;;6.65;;
9481;SDS011;4779;48.062;11.672;2023-05-21T03:49:55;7.55;;;6.55;;
9481;SDS011;4779;48.062;11.672;2023-05-21T03:52:22;7.15;;;6.45;;
9481;SDS011;4779;48.062;11.672;2023-05-21T03:54:49;7.82;;;6.15;;
9481;SDS011;4779;48.062;11.672;2023-05-21T03:57:17;7.38;;;6.38;;
9481;SDS011;4779;48.062;11.672;2023-05-21T03:59:44;6.80;;;6.13;;
9481;SDS011;4779;48.062;11.672;2023-05-21T04:02:11;6.57;;;5.97;;
9481;SDS011;4779;48.062;11.672;2023-05-21T04:04:38;7.13;;;6.43;;
9481;SDS011;4779;48.062;11.672;2023-05-21T04:07:05;8.05;;;6.55;;
9481;SDS011;4779;48.062;11.672;2023-05-21T04:09:38;7.40;;;6.72;;
9481;SDS011;4779;48.062;11.672;2023-05-21T04:12:06;7.75;;;7.00;;
9481;SDS011;4779;48.062;11.672;2023-05-21T04:14:34;7.53;;;6.75;;
9481;SDS011;4779;48.062;11.672;2023-05-21T04:17:02;7.47;;;6.78;;
9481;SDS011;4779;48.062;11.672;2023-05-21T04:19:29;7.63;;;6.72;;
9481;SDS011;4779;48.062;11.672;2023-05-21T04:21:56;8.13;;;6.10;;
9481;SDS011;4779;48.062;11.672;2023-05-21T04:24:23;6.88;;;6.28;;
9481;SDS011;4779;48.062;11.672;2023-05-21T04:26:50;7.63;;;6.93;;
9481;SDS011;4779;48.062;11.672;2023-05-21T04:29:17;7.82;;;6.60;;
9481;SDS011;4779;48.062;11.672;2023-05-21T04:31:46;8.07;;;7.28;;
9481;SDS011;4779;48.062;11.672;2023-05-21T04:34:13;7.75;;;6.97;;
9481;SDS011;4779;48.062;11.672;2023-05-21T04:36:41;7.80;;;7.10;;
9481;SDS011;4779;48.062;11.672;2023-05-21T04:39:09;7.28;;;6.57;;
9481;SDS011;4779;48.062;11.672;2023-05-21T04:41:36;7.00;;;6.40;;
9481;SDS011;4779;48.062;11.672;2023-05-21T04:44:03;7.18;;;6.57;;
9481;SDS011;4779;48.062;11.672;2023-05-21T04:46:33;6.68;;;6.07;;
9481;SDS011;4779;48.062;11.672;2023-05-21T04:49:01;7.80;;;7.10;;
9481;SDS011;4779;48.062;11.672;2023-05-21T04:51:28;7.40;;;6.70;;
9481;SDS011;4779;48.062;11.672;2023-05-21T04:53:56;8.90;;;6.53;;
9481;SDS011;4779;48.062;11.672;2023-05-21T04:56:23;7.88;;;6.95;;
9481;SDS011;4779;48.062;11.672;2023-05-21T04:58:51;7.93;;;7.13;;
9481;SDS011;4779;48.062;11.672;2023-05-21T05:01:18;7.82;;;7.07;;
9481;SDS011;4779;48.062;11.672;2023-05-21T05:03:47;8.85;;;6.40;;
9481;SDS011;4779;48.062;11.672;2023-05-21T05:06:16;7.38;;;6.70;;
9481;SDS011;4779;48.062;11.672;2023-05-21T05:08:43;6.88;;;6.28;;
9481;SDS011;4779;48.062;11.672;2023-05-21T05:11:10;7.25;;;6.55;;
9481;SDS011;4779;48.062;11.672;2023-05-21T05:13:38;8.95;;;6.60;;
9481;SDS011;4779;48.062;11.672;2023-05-21T05:16:05;7.65;;;6.93;;
9481;SDS011;4779;48.062;11.672;2023-05-21T05:18:32;7.43;;;6.72;;
9481;SDS011;4779;48.062;11.672;2023-05-21T05:20:59;7.85;;;7.15;;
9481;SDS011;4779;48.062;11.672;2023-05-21T05:23:27;7.70;;;6.90;;
9481;SDS011;4779;48.062;11.672;2023-05-21T05:25:54;7.30;;;6.70;;
9481;SDS011;4779;48.062;11.672;2023-05-21T05:28:21;7.85;;;7.05;;
9481;SDS011;4779;48.062;11.672;2023-05-21T05:30:48;8.15;;;7.38;;
9481;SDS011;4779;48.062;11.672;2023-05-21T05:33:15;8.63;;;7.70;;
9481;SDS011;4779;48.062;11.672;2023-05-21T05:35:42;7.30;;;6.60;;
9481;SDS011;4779;48.062;11.672;2023-05-21T05:38:09;7.30;;;6.60;;
9481;SDS011;4779;48.062;11.672;2023-05-21T05:40:37;7.68;;;6.97;;
9481;SDS011;4779;48.062;11.672;2023-05-21T05:43:04;7.65;;;6.95;;
9481;SDS011;4779;48.062;11.672;2023-05-21T05:45:31;7.80;;;6.80;;
9481;SDS011;4779;48.062;11.672;2023-05-21T05:47:58;9.40;;;6.55;;
9481;SDS011;4779;48.062;11.672;2023-05-21T05:50:25;7.18;;;6.47;;
9481;SDS011;4779;48.062;11.672;2023-05-21T05:52:52;8.07;;;5.93;;
9481;SDS011;4779;48.062;11.672;2023-05-21T05:55:19;7.30;;;6.70;;
9481;SDS011;4779;48.062;11.672;2023-05-21T05:57:50;7.38;;;6.65;;
9481;SDS011;4779;48.062;11.672;2023-05-21T06:00:17;7.30;;;6.60;;
9481;SDS011;4779;48.062;11.672;2023-05-21T06:02:45;7.85;;;6.45;;
9481;SDS011;4779;48.062;11.672;2023-05-21T06:05:12;6.50;;;6.00;;
9481;SDS011;4779;48.062;11.672;2023-05-21T06:07:39;7.97;;;7.28;;
9481;SDS011;4779;48.062;11.672;2023-05-21T06:10:06;6.93;;;6.25;;
9481;SDS011;4779;48.062;11.672;2023-05-21T06:12:34;6.78;;;6.18;;
9481;SDS011;4779;48.062;11.672;2023-05-21T06:15:03;7.15;;;6.05;;
9481;SDS011;4779;48.062;11.672;2023-05-21T06:17:30;6.63;;;6.03;;
9481;SDS011;4779;48.062;11.672;2023-05-21T06:19:57;7.22;;;6.53;;
9481;SDS011;4779;48.062;11.672;2023-05-21T06:22:24;7.15;;;6.40;;
9481;SDS011;4779;48.062;11.672;2023-05-21T06:24:51;6.68;;;6.07;;
9481;SDS011;4779;48.062;11.672;2023-05-21T06:27:18;6.40;;;5.70;;
9481;SDS011;4779;48.062;11.672;2023-05-21T06:29:45;6.90;;;6.25;;
9481;SDS011;4779;48.062;11.672;2023-05-21T06:32:13;6.80;;;6.10;;
9481;SDS011;4779;48.062;11.672;2023-05-21T06:34:40;7.00;;;6.30;;
9481;SDS011;4779;48.062;11.672;2023-05-21T06:37:07;6.53;;;5.93;;
9481;SDS011;4779;48.062;11.672;2023-05-21T06:39:34;7.20;;;6.55;;
9481;SDS011;4779;48.062;11.672;2023-05-21T06:42:01;6.85;;;6.15;;
9481;SDS011;4779;48.062;11.672;2023-05-21T06:44:28;6.70;;;6.10;;
9481;SDS011;4779;48.062;11.672;2023-05-21T06:46:55;6.30;;;5.80;;
9481;SDS011;4779;48.062;11.672;2023-05-21T06:49:23;6.57;;;5.97;;
9481;SDS011;4779;48.062;11.672;2023-05-21T06:51:50;7.07;;;6.38;;
9481;SDS011;4779;48.062;11.672;2023-05-21T06:54:17;6.72;;;6.07;;
9481;SDS011;4779;48.062;11.672;2023-05-21T06:56:44;7.43;;;6.43;;
9481;SDS011;4779;48.062;11.672;2023-05-21T06:59:11;6.30;;;5.72;;
9481;SDS011;4779;48.062;11.672;2023-05-21T07:01:38;7.22;;;6.53;;
9481;SDS011;4779;48.062;11.672;2023-05-21T07:04:06;6.22;;;5.63;;
9481;SDS011;4779;48.062;11.672;2023-05-21T07:06:34;6.65;;;6.00;;
9481;SDS011;4779;48.062;11.672;2023-05-21T07:09:01;6.65;;;5.90;;
9481;SDS011;4779;48.062;11.672;2023-05-21T07:11:29;6.65;;;6.05;;
9481;SDS011;4779;48.062;11.672;2023-05-21T07:13:57;6.82;;;6.13;;
9481;SDS011;4779;48.062;11.672;2023-05-21T07:16:25;7.10;;;6.40;;
9481;SDS011;4779;48.062;11.672;2023-05-21T07:18:52;7.63;;;6.13;;
9481;SDS011;4779;48.062;11.672;2023-05-21T07:21:19;6.53;;;5.93;;
9481;SDS011;4779;48.062;11.672;2023-05-21T07:23:47;6.70;;;6.00;;
9481;SDS011;4779;48.062;11.672;2023-05-21T07:26:14;6.72;;;5.90;;
9481;SDS011;4779;48.062;11.672;2023-05-21T07:28:41;6.45;;;5.82;;
9481;SDS011;4779;48.062;11.672;2023-05-21T07:31:09;6.43;;;5.82;;
9481;SDS011;4779;48.062;11.672;2023-05-21T07:33:37;6.20;;;5.50;;
9481;SDS011;4779;48.062;11.672;2023-05-21T07:36:04;6.25;;;5.65;;
9481;SDS011;4779;48.062;11.672;2023-05-21T07:38:31;6.22;;;5.72;;
9481;SDS011;4779;48.062;11.672;2023-05-21T07:41:00;6.10;;;5.60;;
9481;SDS011;4779;48.062;11.672;2023-05-21T07:43:27;6.28;;;5.68;;
9481;SDS011;4779;48.062;11.672;2023-05-21T07:45:53;6.97;;;5.68;;
9481;SDS011;4779;48.062;11.672;2023-05-21T07:48:20;6.80;;;6.20;;
9481;SDS011;4779;48.062;11.672;2023-05-21T07:50:47;7.15;;;5.90;;
9481;SDS011;4779;48.062;11.672;2023-05-21T07:53:16;7.82;;;5.82;;
9481;SDS011;4779;48.062;11.672;2023-05-21T07:55:43;6.07;;;5.57;;
9481;SDS011;4779;48.062;11.672;2023-05-21T07:58:14;7.50;;;5.90;;
9481;SDS011;4779;48.062;11.672;2023-05-21T08:00:41;6.75;;;6.15;;
9481;SDS011;4779;48.062;11.672;2023-05-21T08:03:11;6.28;;;5.43;;
9481;SDS011;4779;48.062;11.672;2023-05-21T08:05:40;6.57;;;5.75;;
9481;SDS011;4779;48.062;11.672;2023-05-21T08:08:08;6.75;;;6.15;;
9481;SDS011;4779;48.062;11.672;2023-05-21T08:10:35;6.60;;;6.00;;
9481;SDS011;4779;48.062;11.672;2023-05-21T08:13:02;6.30;;;5.70;;
9481;SDS011;4779;48.062;11.672;2023-05-21T08:15:31;6.80;;;6.20;;
9481;SDS011;4779;48.062;11.672;2023-05-21T08:17:58;6.47;;;5.90;;
9481;SDS011;4779;48.062;11.672;2023-05-21T08:20:24;6.38;;;5.78;;
9481;SDS011;4779;48.062;11.672;2023-05-21T08:22:52;6.00;;;5.40;;
9481;SDS011;4779;48.062;11.672;2023-05-21T08:25:19;6.65;;;5.65;;
9481;SDS011;4779;48.062;11.672;2023-05-21T08:27:45;6.15;;;5.47;;
9481;SDS011;4779;48.062;11.672;2023-05-21T08:30:12;6.25;;;5.65;;
9481;SDS011;4779;48.062;11.672;2023-05-21T08:32:41;7.38;;;5.65;;
9481;SDS011;4779;48.062;11.672;2023-05-21T08:35:08;7.28;;;6.20;;
9481;SDS011;4779;48.062;11.672;2023-05-21T08:37:35;6.65;;;6.05;;
9481;SDS011;4779;48.062;11.672;2023-05-21T08:40:02;6.53;;;5.93;;
9481;SDS011;4779;48.062;11.672;2023-05-21T08:42:33;6.32;;;5.75;;
9481;SDS011;4779;48.062;11.672;2023-05-21T08:45:05;6.97;;;6.22;;
9481;SDS011;4779;48.062;11.672;2023-05-21T08:47:33;6.88;;;6.18;;
9481;SDS011;4779;48.062;11.672;2023-05-21T08:50:03;7.07;;;6.38;;
9481;SDS011;4779;48.062;11.672;2023-05-21T08:52:34;7.10;;;6.40;;
9481;SDS011;4779;48.062;11.672;2023-05-21T08:55:02;7.03;;;6.25;;
9481;SDS011;4779;48.062;11.672;2023-05-21T08:57:30;7.07;;;6.38;;
9481;SDS011;4779;48.062;11.672;2023-05-21T08:59:57;6.65;;;6.05;;
9481;SDS011;4779;48.062;11.672;2023-05-21T09:02:25;6.35;;;5.72;;
9481;SDS011;4779;48.062;11.672;2023-05-21T09:04:54;6.35;;;5.78;;
9481;SDS011;4779;48.062;11.672;2023-05-21T09:07:24;6.32;;;5.82;;
9481;SDS011;4779;48.062;11.672;2023-05-21T09:09:53;6.68;;;6.07;;
9481;SDS011;4779;48.062;11.672;2023-05-21T09:12:22;6.78;;;6.22;;
9481;SDS011;4779;48.062;11.672;2023-05-21T09:14:50;6.20;;;5.60;;
9481;SDS011;4779;48.062;11.672;2023-05-21T09:17:17;6.68;;;6.07;;
9481;SDS011;4779;48.062;11.672;2023-05-21T09:22:34;5.90;;;5.40;;
9481;SDS011;4779;48.062;11.672;2023-05-21T09:25:05;7.20;;;5.53;;
9481;SDS011;4779;48.062;11.672;2023-05-21T09:27:33;5.88;;;5.38;;
9481;SDS011;4779;48.062;11.672;2023-05-21T09:30:00;5.28;;;4.78;;
9481;SDS011;4779;48.062;11.672;2023-05-21T09:32:27;7.53;;;5.75;;
9481;SDS011;4779;48.062;11.672;2023-05-21T09:34:54;5.68;;;5.18;;
9481;SDS011;4779;48.062;11.672;2023-05-21T09:37:21;5.57;;;5.00;;
9481;SDS011;4779;48.062;11.672;2023-05-21T09:39:49;6.03;;;5.30;;
9481;SDS011;4779;48.062;11.672;2023-05-21T09:42:18;5.43;;;4.93;;
9481;SDS011;4779;48.062;11.672;2023-05-21T09:44:46;5.13;;;4.72;;
9481;SDS011;4779;48.062;11.672;2023-05-21T09:47:18;6.32;;;5.45;;
9481;SDS011;4779;48.062;11.672;2023-05-21T09:49:46;5.80;;;5.22;;
9481;SDS011;4779;48.062;11.672;2023-05-21T09:52:21;6.22;;;5.00;;
9481;SDS011;4779;48.062;11.672;2023-05-21T09:54:50;6.72;;;5.75;;
9481;SDS011;4779;48.062;11.672;2023-05-21T09:57:22;4.80;;;4.40;;
9481;SDS011;4779;48.062;11.672;2023-05-21T09:59:49;5.85;;;5.28;;
9481;SDS011;4779;48.062;11.672;2023-05-21T10:02:18;7.20;;;5.53;;
9481;SDS011;4779;48.062;11.672;2023-05-21T10:04:46;5.47;;;4.97;;
9481;SDS011;4779;48.062;11.672;2023-05-21T10:07:14;6.93;;;5.35;;
9481;SDS011;4779;48.062;11.672;2023-05-21T10:09:44;6.38;;;5.78;;
9481;SDS011;4779;48.062;11.672;2023-05-21T10:12:14;5.72;;;5.22;;
9481;SDS011;4779;48.062;11.672;2023-05-21T10:14:44;6.25;;;5.65;;
9481;SDS011;4779;48.062;11.672;2023-05-21T10:17:15;5.88;;;5.35;;
9481;SDS011;4779;48.062;11.672;2023-05-21T10:19:43;5.53;;;5.03;;
9481;SDS011;4779;48.062;11.672;2023-05-21T10:22:11;6.70;;;6.10;;
9481;SDS011;4779;48.062;11.672;2023-05-21T10:24:40;6.18;;;5.68;;
9481;SDS011;4779;48.062;11.672;2023-05-21T10:27:10;6.30;;;5.70;;
9481;SDS011;4779;48.062;11.672;2023-05-21T10:29:40;6.50;;;5.88;;
9481;SDS011;4779;48.062;11.672;2023-05-21T10:32:09;5.90;;;5.40;;
9481;SDS011;4779;48.062;11.672;2023-05-21T10:34:38;6.15;;;5.55;;
9481;SDS011;4779;48.062;11.672;2023-05-21T10:37:06;6.03;;;5.53;;
9481;SDS011;4779;48.062;11.672;2023-05-21T10:39:34;6.35;;;5.68;;
9481;SDS011;4779;48.062;11.672;2023-05-21T10:42:04;5.70;;;5.13;;
9481;SDS011;4779;48.062;11.672;2023-05-21T10:44:47;5.65;;;5.13;;
9481;SDS011;4779;48.062;11.672;2023-05-21T10:47:34;5.90;;;5.38;;
9481;SDS011;4779;48.062;11.672;2023-05-21T10:50:21;5.57;;;5.00;;
9481;SDS011;4779;48.062;11.672;2023-05-21T10:53:04;5.25;;;4.78;;
9481;SDS011;4779;48.062;11.672;2023-05-21T10:55:43;6.20;;;5.03;;
9481;SDS011;4779;48.062;11.672;2023-05-21T10:58:30;6.20;;;5.63;;
9481;SDS011;4779;48.062;11.672;2023-05-21T11:01:21;5.32;;;4.93;;
9481;SDS011;4779;48.062;11.672;2023-05-21T11:03:48;6.05;;;5.45;;
9481;SDS011;4779;48.062;11.672;2023-05-21T11:06:21;7.07;;;5.18;;
9481;SDS011;4779;48.062;11.672;2023-05-21T11:08:50;5.75;;;5.15;;
9481;SDS011;4779;48.062;11.672;2023-05-21T11:17:01;5.82;;;5.22;;
9481;SDS011;4779;48.062;11.672;2023-05-21T11:19:33;5.82;;;5.32;;
9481;SDS011;4779;48.062;11.672;2023-05-21T11:22:04;6.05;;;5.45;;
9481;SDS011;4779;48.062;11.672;2023-05-21T11:24:34;5.45;;;4.93;;
9481;SDS011;4779;48.062;11.672;2023-05-21T11:27:03;5.57;;;5.07;;
9481;SDS011;4779;48.062;11.672;2023-05-21T11:29:40;5.50;;;4.88;;
9481;SDS011;4779;48.062;11.672;2023-05-21T11:32:11;5.47;;;4.97;;
9481;SDS011;4779;48.062;11.672;2023-05-21T11:34:39;5.50;;;5.00;;
9481;SDS011;4779;48.062;11.672;2023-05-21T11:39:53;5.57;;;5.07;;
9481;SDS011;4779;48.062;11.672;2023-05-21T11:42:30;5.32;;;4.93;;
9481;SDS011;4779;48.062;11.672;2023-05-21T11:44:58;5.18;;;4.60;;
9481;SDS011;4779;48.062;11.672;2023-05-21T11:47:28;5.40;;;4.78;;
9481;SDS011;4779;48.062;11.672;2023-05-21T11:52:24;5.22;;;4.82;;
9481;SDS011;4779;48.062;11.672;2023-05-21T11:54:51;4.95;;;4.45;;
9481;SDS011;4779;48.062;11.672;2023-05-21T11:57:19;5.43;;;4.93;;
9481;SDS011;4779;48.062;11.672;2023-05-21T11:59:47;6.18;;;4.95;;
9481;SDS011;4779;48.062;11.672;2023-05-21T12:02:16;5.20;;;4.70;;
9481;SDS011;4779;48.062;11.672;2023-05-21T12:04:47;6.35;;;4.97;;
9481;SDS011;4779;48.062;11.672;2023-05-21T12:07:15;5.60;;;5.10;;
9481;SDS011;4779;48.062;11.672;2023-05-21T12:09:43;5.40;;;4.90;;
9481;SDS011;4779;48.062;11.672;2023-05-21T12:12:12;5.75;;;5.22;;
9481;SDS011;4779;48.062;11.672;2023-05-21T12:14:42;5.22;;;4.72;;
9481;SDS011;4779;48.062;11.672;2023-05-21T12:17:09;5.20;;;4.70;;
9481;SDS011;4779;48.062;11.672;2023-05-21T12:19:37;5.32;;;4.82;;
9481;SDS011;4779;48.062;11.672;2023-05-21T12:22:06;5.30;;;4.80;;
9481;SDS011;4779;48.062;11.672;2023-05-21T12:24:34;5.85;;;5.35;;
9481;SDS011;4779;48.062;11.672;2023-05-21T12:27:02;4.68;;;4.35;;
9481;SDS011;4779;48.062;11.672;2023-05-21T12:29:34;5.43;;;4.93;;
9481;SDS011;4779;48.062;11.672;2023-05-21T12:32:02;6.40;;;4.75;;
9481;SDS011;4779;48.062;11.672;2023-05-21T12:34:35;5.82;;;4.88;;
9481;SDS011;4779;48.062;11.672;2023-05-21T12:37:04;9.50;;;4.95;;
9481;SDS011;4779;48.062;11.672;2023-05-21T12:39:36;5.47;;;4.97;;
9481;SDS011;4779;48.062;11.672;2023-05-21T12:42:04;5.72;;;4.30;;
9481;SDS011;4779;48.062;11.672;2023-05-21T12:44:31;5.28;;;4.72;;
9481;SDS011;4779;48.062;11.672;2023-05-21T12:46:58;6.22;;;4.90;;
9481;SDS011;4779;48.062;11.672;2023-05-21T12:49:29;5.03;;;4.63;;
9481;SDS011;4779;48.062;11.672;2023-05-21T12:51:57;5.60;;;4.57;;
9481;SDS011;4779;48.062;11.672;2023-05-21T12:54:28;5.45;;;4.70;;
9481;SDS011;4779;48.062;11.672;2023-05-21T12:56:57;5.35;;;4.38;;
9481;SDS011;4779;48.062;11.672;2023-05-21T12:59:38;5.15;;;4.53;;
9481;SDS011;4779;48.062;11.672;2023-05-21T13:02:15;4.70;;;4.30;;
9481;SDS011;4779;48.062;11.672;2023-05-21T13:04:45;5.22;;;4.75;;
9481;SDS011;4779;48.062;11.672;2023-05-21T13:07:13;4.80;;;4.40;;
9481;SDS011;4779;48.062;11.672;2023-05-21T13:09:42;5.03;;;4.57;;
9481;SDS011;4779;48.062;11.672;2023-05-21T13:12:10;4.85;;;4.45;;
9481;SDS011;4779;48.062;11.672;2023-05-21T13:14:37;5.68;;;4.70;;
9481;SDS011;4779;48.062;11.672;2023-05-21T13:17:04;5.28;;;4.80;;
9481;SDS011;4779;48.062;11.672;2023-05-21T13:19:31;5.35;;;4.85;;
9481;SDS011;4779;48.062;11.672;2023-05-21T13:21:58;4.82;;;4.43;;
9481;SDS011;4779;48.062;11.672;2023-05-21T13:24:25;5.25;;;4.65;;
9481;SDS011;4779;48.062;11.672;2023-05-21T13:26:53;5.30;;;4.85;;
9481;SDS011;4779;48.062;11.672;2023-05-21T13:29:20;5.70;;;4.70;;
9481;SDS011;4779;48.062;11.672;2023-05-21T13:31:47;5.50;;;4.80;;
9481;SDS011;4779;48.062;11.672;2023-05-21T13:34:14;5.88;;;5.28;;
9481;SDS011;4779;48.062;11.672;2023-05-21T13:36:41;5.65;;;4.95;;
9481;SDS011;4779;48.062;11.672;2023-05-21T13:39:08;5.50;;;5.05;;
9481;SDS011;4779;48.062;11.672;2023-05-21T13:41:35;5.88;;;5.10;;
9481;SDS011;4779;48.062;11.672;2023-05-21T13:44:03;5.72;;;5.10;;
9481;SDS011;4779;48.062;11.672;2023-05-21T13:46:30;5.50;;;4.97;;
9481;SDS011;4779;48.062;11.672;2023-05-21T13:48:57;5.70;;;5.20;;
9481;SDS011;4779;48.062;11.672;2023-05-21T13:51:24;5.40;;;4.90;;
9481;SDS011;4779;48.062;11.672;2023-05-21T13:53:51;5.72;;;5.22;;
9481;SDS011;4779;48.062;11.672;2023-05-21T13:56:19;5.68;;;5.18;;
9481;SDS011;4779;48.062;11.672;2023-05-21T13:58:47;5.43;;;4.97;;
9481;SDS011;4779;48.062;11.672;2023-05-21T14:01:15;5.57;;;5.00;;
9481;SDS011;4779;48.062;11.672;2023-05-21T14:03:42;6.13;;;5.38;;
9481;SDS011;4779;48.062;11.672;2023-05-21T14:06:09;6.20;;;5.70;;
9481;SDS011;4779;48.062;11.672;2023-05-21T14:08:36;6.00;;;4.95;;
9481;SDS011;4779;48.062;11.672;2023-05-21T14:11:03;6.15;;;4.72;;
9481;SDS011;4779;48.062;11.672;2023-05-21T14:13:30;6.45;;;5.18;;
9481;SDS011;4779;48.062;11.672;2023-05-21T14:15:57;5.35;;;4.85;;
9481;SDS011;4779;48.062;11.672;2023-05-21T14:18:26;5.70;;;4.82;;
9481;SDS011;4779;48.062;11.672;2023-05-21T14:20:53;5.55;;;5.03;;
9481;SDS011;4779;48.062;11.672;2023-05-21T14:23:19;5.88;;;5.05;;
9481;SDS011;4779;48.062;11.672;2023-05-21T14:25:46;5.82;;;5.05;;
9481;SDS011;4779;48.062;11.672;2023-05-21T14:28:13;5.07;;;4.57;;
9481;SDS011;4779;48.062;11.672;2023-05-21T14:30:40;5.40;;;4.93;;
9481;SDS011;4779;48.062;11.672;2023-05-21T14:33:07;5.38;;;4.88;;
9481;SDS011;4779;48.062;11.672;2023-05-21T14:35:35;5.07;;;4.53;;
9481;SDS011;4779;48.062;11.672;2023-05-21T14:38:02;5.32;;;4.93;;
9481;SDS011;4779;48.062;11.672;2023-05-21T14:40:29;5.25;;;4.75;;
9481;SDS011;4779;48.062;11.672;2023-05-21T14:42:56;5.15;;;4.75;;
9481;SDS011;4779;48.062;11.672;2023-05-21T14:45:22;5.95;;;5.00;;
9481;SDS011;4779;48.062;11.672;2023-05-21T14:47:49;5.15;;;4.75;;
9481;SDS011;4779;48.062;11.672;2023-05-21T14:50:17;4.93;;;4.53;;
9481;SDS011;4779;48.062;11.672;2023-05-21T14:52:47;5.95;;;5.10;;
9481;SDS011;4779;48.062;11.672;2023-05-21T14:55:13;6.07;;;4.80;;
9481;SDS011;4779;48.062;11.672;2023-05-21T14:57:42;5.57;;;4.93;;
9481;SDS011;4779;48.062;11.672;2023-05-21T15:00:10;5.43;;;4.90;;
9481;SDS011;4779;48.062;11.672;2023-05-21T15:02:37;6.53;;;4.70;;
9481;SDS011;4779;48.062;11.672;2023-05-21T15:05:04;5.53;;;4.57;;
9481;SDS011;4779;48.062;11.672;2023-05-21T15:07:32;5.32;;;4.57;;
9481;SDS011;4779;48.062;11.672;2023-05-21T15:10:00;5.13;;;4.60;;
9481;SDS011;4779;48.062;11.672;2023-05-21T15:12:27;4.78;;;4.25;;
9481;SDS011;4779;48.062;11.672;2023-05-21T15:14:53;4.90;;;4.45;;
9481;SDS011;4779;48.062;11.672;2023-05-21T15:17:20;6.32;;;4.90;;
9481;SDS011;4779;48.062;11.672;2023-05-21T15:19:47;5.47;;;4.50;;